createdAt,value
2019-05-17T00:00:23.215Z,12.18
2019-05-17T00:02:57.155Z,12.16
2019-05-17T00:05:30.024Z,12.11
2019-05-17T00:08:02.795Z,12.12
2019-05-17T00:10:37.884Z,12.12
2019-05-17T00:13:17.523Z,12.11
2019-05-17T00:15:56.662Z,12.09
2019-05-17T00:18:29.580Z,12.09
2019-05-17T00:21:02.398Z,12.07
2019-05-17T00:23:37.503Z,12.12
2019-05-17T00:26:11.744Z,12.19
2019-05-17T00:28:46.781Z,12.23
2019-05-17T00:31:19.875Z,12.15
2019-05-17T00:33:53.415Z,12.12
2019-05-17T00:36:27.597Z,12.09
2019-05-17T00:39:00.997Z,12.06
2019-05-17T00:41:33.665Z,12.04
2019-05-17T00:44:06.996Z,12.03
2019-05-17T00:46:39.439Z,12.00
2019-05-17T00:49:11.999Z,11.96
2019-05-17T00:51:44.514Z,11.96
2019-05-17T00:54:17.616Z,11.95
2019-05-17T00:56:50.124Z,11.94
2019-05-17T00:59:22.736Z,12.03
2019-05-17T01:01:56.320Z,12.12
2019-05-17T01:04:29.731Z,12.19
2019-05-17T01:07:03.230Z,12.15
2019-05-17T01:09:36.615Z,12.11
2019-05-17T01:12:09.869Z,12.18
2019-05-17T01:14:42.576Z,12.12
2019-05-17T01:17:16.526Z,12.09
2019-05-17T01:19:53.000Z,12.07
2019-05-17T01:22:26.283Z,12.04
2019-05-17T01:24:58.857Z,12.01
2019-05-17T01:27:33.028Z,11.99
2019-05-17T01:30:07.376Z,11.97
2019-05-17T01:32:40.044Z,11.93
2019-05-17T01:35:12.589Z,11.91
2019-05-17T01:37:47.469Z,11.89
2019-05-17T01:40:20.197Z,11.87
2019-05-17T01:42:52.803Z,11.85
2019-05-17T01:45:26.931Z,11.84
2019-05-17T01:48:00.266Z,11.92
2019-05-17T01:50:32.797Z,11.88
2019-05-17T01:53:07.374Z,11.86
2019-05-17T01:55:40.414Z,11.85
2019-05-17T01:58:12.944Z,11.92
2019-05-17T02:00:46.619Z,11.87
2019-05-17T02:03:19.175Z,11.86
2019-05-17T02:05:51.687Z,11.83
2019-05-17T02:08:26.449Z,11.83
2019-05-17T02:11:00.363Z,11.81
2019-05-17T02:13:37.565Z,11.80
2019-05-17T02:16:12.103Z,11.79
2019-05-17T02:18:47.942Z,11.78
2019-05-17T02:21:23.326Z,11.87
2019-05-17T02:23:57.467Z,11.91
2019-05-17T02:26:31.088Z,11.95
2019-05-17T02:29:07.004Z,11.87
2019-05-17T02:31:43.252Z,11.83
2019-05-17T02:34:16.443Z,11.80
2019-05-17T02:36:48.973Z,11.90
2019-05-17T02:39:23.188Z,11.85
2019-05-17T02:41:56.825Z,11.82
2019-05-17T02:44:33.159Z,11.78
2019-05-17T02:47:06.484Z,11.72
2019-05-17T02:49:42.276Z,11.71
2019-05-17T02:52:15.063Z,11.70
2019-05-17T02:54:47.799Z,11.69
2019-05-17T02:57:23.179Z,11.68
2019-05-17T02:59:56.086Z,11.73
2019-05-17T03:02:28.704Z,11.67
2019-05-17T03:05:04.044Z,11.67
2019-05-17T03:07:36.883Z,11.63
2019-05-17T03:10:23.910Z,11.73
2019-05-17T03:13:04.112Z,11.69
2019-05-17T03:15:36.995Z,11.65
2019-05-17T03:18:09.559Z,11.65
2019-05-17T03:20:43.206Z,11.65
2019-05-17T03:23:15.969Z,11.61
2019-05-17T03:25:52.195Z,11.58
2019-05-17T03:28:25.777Z,11.55
2019-05-17T03:30:58.629Z,11.60
2019-05-17T03:33:36.087Z,11.57
2019-05-17T03:36:09.241Z,11.54
2019-05-17T03:38:43.166Z,11.51
2019-05-17T03:41:23.952Z,11.55
2019-05-17T03:44:03.231Z,11.50
2019-05-17T03:46:37.536Z,11.49
2019-05-17T03:49:13.117Z,11.49
2019-05-17T03:51:48.345Z,11.55
2019-05-17T03:54:32.477Z,11.52
2019-05-17T03:57:06.012Z,11.51
2019-05-17T03:59:38.532Z,11.57
2019-05-17T04:02:12.462Z,11.65
2019-05-17T04:04:45.146Z,11.70
2019-05-17T04:07:18.634Z,11.68
2019-05-17T04:09:53.253Z,11.78
2019-05-17T04:12:27.609Z,11.73
2019-05-17T04:15:03.256Z,11.79
2019-05-17T04:17:36.298Z,11.72
2019-05-17T04:20:08.880Z,11.78
2019-05-17T04:22:44.032Z,11.74
2019-05-17T04:25:17.341Z,11.71
2019-05-17T04:27:53.395Z,11.69
2019-05-17T04:30:26.163Z,11.68
2019-05-17T04:32:58.664Z,11.70
2019-05-17T04:35:35.373Z,11.78
2019-05-17T04:38:08.203Z,11.84
2019-05-17T04:40:43.236Z,11.78
2019-05-17T04:43:15.973Z,11.85
2019-05-17T04:45:53.213Z,11.85
2019-05-17T04:48:26.285Z,11.84
2019-05-17T04:50:58.846Z,11.84
2019-05-17T04:53:32.814Z,11.85
2019-05-17T04:56:05.851Z,11.83
2019-05-17T04:58:38.403Z,11.82
2019-05-17T05:01:13.267Z,11.83
2019-05-17T05:03:46.988Z,11.86
2019-05-17T05:06:19.671Z,11.87
2019-05-17T05:08:52.956Z,11.88
2019-05-17T05:11:25.596Z,11.87
2019-05-17T05:14:02.743Z,11.88
2019-05-17T05:16:35.949Z,11.85
2019-05-17T05:19:08.504Z,11.80
2019-05-17T05:21:42.609Z,11.76
2019-05-17T05:24:15.485Z,11.78
2019-05-17T05:26:48.090Z,11.83
2019-05-17T05:29:21.658Z,11.83
2019-05-17T05:31:55.153Z,11.87
2019-05-17T05:34:27.623Z,11.91
2019-05-17T05:37:02.105Z,11.91
2019-05-17T05:39:35.986Z,11.94
2019-05-17T05:42:13.963Z,12.01
2019-05-17T05:44:46.900Z,12.06
2019-05-17T05:47:22.152Z,12.11
2019-05-17T05:49:55.242Z,12.11
2019-05-17T05:52:28.105Z,12.16
2019-05-17T05:55:02.912Z,12.23
2019-05-17T05:57:35.916Z,12.27
2019-05-17T06:00:12.468Z,12.30
2019-05-17T06:02:54.095Z,12.32
2019-05-17T06:05:27.992Z,12.30
2019-05-17T06:08:02.828Z,12.33
2019-05-17T06:10:35.798Z,12.36
2019-05-17T06:13:09.853Z,12.36
2019-05-17T06:15:43.427Z,12.41
2019-05-17T06:18:16.031Z,12.46
2019-05-17T06:20:48.682Z,12.49
2019-05-17T06:23:23.466Z,12.53
2019-05-17T06:25:56.528Z,12.65
2019-05-17T06:28:29.039Z,12.73
2019-05-17T06:31:02.922Z,12.71
2019-05-17T06:33:35.568Z,12.72
2019-05-17T06:36:09.635Z,12.77
2019-05-17T06:38:42.440Z,12.81
2019-05-17T06:41:15.823Z,12.77
2019-05-17T06:43:48.347Z,12.76
2019-05-17T06:46:22.036Z,12.75
2019-05-17T06:48:54.794Z,12.79
2019-05-17T06:51:28.155Z,12.82
2019-05-17T06:54:01.903Z,12.85
2019-05-17T06:56:34.411Z,12.96
2019-05-17T06:59:06.873Z,13.04
2019-05-17T07:01:40.953Z,13.11
2019-05-17T07:04:14.626Z,13.11
2019-05-17T07:07:06.932Z,13.17
2019-05-17T07:09:49.704Z,13.17
2019-05-17T07:12:23.247Z,13.16
2019-05-17T07:14:58.385Z,13.15
2019-05-17T07:17:31.259Z,13.07
2019-05-17T07:20:04.216Z,13.05
2019-05-17T07:22:40.453Z,13.09
2019-05-17T07:25:14.080Z,13.20
2019-05-17T07:27:50.094Z,13.22
2019-05-17T07:30:26.529Z,13.28
2019-05-17T07:33:00.347Z,13.30
2019-05-17T07:35:33.173Z,13.37
2019-05-17T07:38:05.784Z,13.40
2019-05-17T07:40:39.935Z,13.39
2019-05-17T07:43:14.938Z,13.33
2019-05-17T07:45:49.643Z,13.35
2019-05-17T07:48:24.565Z,13.27
2019-05-17T07:50:59.258Z,13.24
2019-05-17T07:53:32.092Z,13.21
2019-05-17T07:56:10.109Z,13.18
2019-05-17T07:58:49.524Z,13.21
2019-05-17T08:01:23.055Z,13.26
2019-05-17T08:03:55.813Z,13.30
2019-05-17T08:06:30.573Z,13.37
2019-05-17T08:09:05.925Z,13.38
2019-05-17T08:11:44.150Z,13.36
2019-05-17T08:14:29.290Z,13.33
2019-05-17T08:17:03.139Z,13.42
2019-05-17T08:19:35.678Z,13.54
2019-05-17T08:22:09.838Z,13.64
2019-05-17T08:24:42.443Z,13.70
2019-05-17T08:27:15.121Z,13.74
2019-05-17T08:29:49.760Z,13.83
2019-05-17T08:32:22.451Z,13.95
2019-05-17T08:34:55.726Z,14.00
2019-05-17T08:37:30.388Z,13.98
2019-05-17T08:40:05.768Z,14.02
2019-05-17T08:42:41.360Z,14.01
2019-05-17T08:45:16.850Z,14.10
2019-05-17T08:47:56.883Z,14.21
2019-05-17T08:50:29.609Z,14.19
2019-05-17T08:53:05.633Z,14.04
2019-05-17T08:55:40.564Z,13.96
2019-05-17T08:58:14.274Z,13.94
2019-05-17T09:00:46.997Z,13.93
2019-05-17T09:03:20.201Z,13.81
2019-05-17T09:05:53.615Z,13.75
2019-05-17T09:08:29.839Z,13.76
2019-05-17T09:11:02.669Z,13.75
2019-05-17T09:13:36.468Z,13.82
2019-05-17T09:16:10.853Z,13.87
2019-05-17T09:18:44.223Z,13.94
2019-05-17T09:21:18.323Z,13.96
2019-05-17T09:23:50.841Z,13.91
2019-05-17T09:26:23.387Z,13.88
2019-05-17T09:28:56.759Z,13.90
2019-05-17T09:31:31.980Z,13.89
2019-05-17T09:34:04.587Z,13.98
2019-05-17T09:36:37.663Z,14.07
2019-05-17T09:39:16.221Z,14.17
2019-05-17T09:41:51.433Z,14.27
2019-05-17T09:44:24.837Z,14.26
2019-05-17T09:46:59.638Z,14.27
2019-05-17T09:49:34.079Z,14.27
2019-05-17T09:52:09.600Z,14.18
2019-05-17T09:54:45.472Z,14.07
2019-05-17T09:57:20.282Z,13.95
2019-05-17T09:59:56.004Z,13.96
2019-05-17T10:02:28.652Z,13.94
2019-05-17T10:05:04.431Z,13.83
2019-05-17T10:07:40.126Z,13.81
2019-05-17T10:10:13.403Z,13.72
2019-05-17T10:12:46.726Z,13.75
2019-05-17T10:15:20.702Z,13.83
2019-05-17T10:17:53.637Z,13.78
2019-05-17T10:20:29.193Z,13.72
2019-05-17T10:23:02.252Z,13.61
2019-05-17T10:25:35.537Z,13.45
2019-05-17T10:28:10.202Z,13.28
2019-05-17T10:30:44.412Z,13.18
2019-05-17T10:33:22.566Z,13.18
2019-05-17T10:35:55.919Z,13.28
2019-05-17T10:38:29.992Z,13.37
2019-05-17T10:41:02.708Z,13.43
2019-05-17T10:43:35.424Z,13.55
2019-05-17T10:46:10.323Z,13.58
2019-05-17T10:48:43.140Z,13.62
2019-05-17T10:51:20.052Z,13.72
2019-05-17T10:53:53.401Z,13.82
2019-05-17T10:56:26.018Z,13.93
2019-05-17T10:59:00.209Z,13.98
2019-05-17T11:01:33.358Z,14.01
2019-05-17T11:04:10.487Z,14.03
2019-05-17T11:06:43.321Z,14.05
2019-05-17T11:09:20.228Z,14.03
2019-05-17T11:11:54.693Z,14.01
2019-05-17T11:14:27.385Z,13.97
2019-05-17T11:17:03.211Z,13.94
2019-05-17T11:19:40.760Z,13.98
2019-05-17T11:22:14.436Z,14.03
2019-05-17T11:24:47.710Z,14.03
2019-05-17T11:27:22.044Z,14.04
2019-05-17T11:29:56.829Z,14.10
2019-05-17T11:32:29.579Z,14.22
2019-05-17T11:35:02.080Z,14.30
2019-05-17T11:37:36.024Z,14.36
2019-05-17T11:40:09.228Z,14.45
2019-05-17T11:42:45.448Z,14.53
2019-05-17T11:45:27.109Z,14.57
2019-05-17T11:48:02.273Z,14.59
2019-05-17T11:50:35.772Z,14.61
2019-05-17T11:53:12.220Z,14.60
2019-05-17T11:55:45.502Z,14.66
2019-05-17T11:58:19.101Z,14.76
2019-05-17T12:00:52.582Z,14.85
2019-05-17T12:03:26.586Z,14.90
2019-05-17T12:05:59.378Z,14.99
2019-05-17T12:08:34.498Z,15.05
2019-05-17T12:11:08.512Z,15.11
2019-05-17T12:13:43.677Z,15.19
2019-05-17T12:16:17.883Z,15.22
2019-05-17T12:18:53.450Z,15.22
2019-05-17T12:21:28.021Z,15.18
2019-05-17T12:24:01.992Z,15.16
2019-05-17T12:26:36.690Z,15.17
2019-05-17T12:29:11.214Z,15.20
2019-05-17T12:31:45.440Z,15.21
2019-05-17T12:34:18.801Z,15.22
2019-05-17T12:37:01.545Z,15.31
2019-05-17T12:39:35.005Z,15.40
2019-05-17T12:42:08.531Z,15.49
2019-05-17T12:44:41.529Z,15.64
2019-05-17T12:47:15.838Z,15.81
2019-05-17T12:49:51.272Z,15.91
2019-05-17T12:52:23.953Z,15.93
2019-05-17T12:54:56.714Z,15.97
2019-05-17T12:57:31.344Z,15.97
2019-05-17T13:00:06.228Z,15.97
2019-05-17T13:02:38.987Z,15.97
2019-05-17T13:05:12.725Z,15.99
2019-05-17T13:07:48.085Z,16.05
2019-05-17T13:10:22.830Z,16.17
2019-05-17T13:12:59.958Z,16.32
2019-05-17T13:15:36.682Z,16.40
2019-05-17T13:18:13.285Z,16.34
2019-05-17T13:20:48.264Z,16.21
2019-05-17T13:23:21.749Z,16.18
2019-05-17T13:25:59.611Z,16.29
2019-05-17T13:28:33.829Z,16.44
2019-05-17T13:31:08.345Z,16.56
2019-05-17T13:33:41.542Z,16.66
2019-05-17T13:36:15.194Z,16.74
2019-05-17T13:38:47.724Z,16.85
2019-05-17T13:41:20.428Z,16.96
2019-05-17T13:43:54.715Z,17.08
2019-05-17T13:46:36.603Z,17.18
2019-05-17T13:49:14.585Z,17.26
2019-05-17T13:51:49.164Z,17.38
2019-05-17T13:54:21.778Z,17.43
2019-05-17T13:56:58.177Z,17.52
2019-05-17T13:59:31.506Z,17.67
2019-05-17T14:02:04.077Z,17.88
2019-05-17T14:04:38.050Z,18.02
2019-05-17T14:07:13.421Z,18.05
2019-05-17T14:09:48.429Z,18.09
2019-05-17T14:12:21.624Z,18.16
2019-05-17T14:14:54.320Z,18.27
2019-05-17T14:17:27.075Z,18.41
2019-05-17T14:20:02.038Z,18.54
2019-05-17T14:22:36.111Z,18.61
2019-05-17T14:25:09.327Z,18.69
2019-05-17T14:27:42.532Z,18.59
2019-05-17T14:30:17.815Z,18.43
2019-05-17T14:32:50.448Z,18.22
2019-05-17T14:35:23.250Z,18.16
2019-05-17T14:37:56.114Z,18.13
2019-05-17T14:41:04.123Z,18.11
2019-05-17T14:43:38.070Z,17.91
2019-05-17T14:46:13.932Z,17.90
2019-05-17T14:48:48.881Z,17.98
2019-05-17T14:51:21.767Z,17.98
2019-05-17T14:53:56.886Z,17.96
2019-05-17T14:56:30.875Z,17.97
2019-05-17T14:59:04.505Z,17.91
2019-05-17T15:01:38.146Z,17.97
2019-05-17T15:04:13.073Z,18.13
2019-05-17T15:06:54.616Z,18.30
2019-05-17T15:09:35.748Z,18.41
2019-05-17T15:12:08.884Z,18.46
2019-05-17T15:14:52.240Z,18.49
2019-05-17T15:17:25.010Z,18.47
2019-05-17T15:19:59.748Z,18.52
2019-05-17T15:22:39.767Z,18.46
2019-05-17T15:25:13.855Z,18.39
2019-05-17T15:27:47.506Z,18.43
2019-05-17T15:30:20.272Z,18.46
2019-05-17T15:32:53.368Z,18.53
2019-05-17T15:35:27.277Z,18.54
2019-05-17T15:38:00.622Z,18.56
2019-05-17T15:40:35.810Z,18.59
2019-05-17T15:43:12.066Z,18.64
2019-05-17T15:45:44.702Z,18.69
2019-05-17T15:48:18.179Z,18.77
2019-05-17T15:50:50.719Z,18.74
2019-05-17T15:53:31.993Z,18.73
2019-05-17T15:56:06.606Z,18.68
2019-05-17T15:58:40.616Z,18.62
2019-05-17T16:01:14.956Z,18.57
2019-05-17T16:03:50.612Z,18.54
2019-05-17T16:06:24.712Z,18.58
2019-05-17T16:08:57.877Z,18.58
2019-05-17T16:11:32.011Z,18.56
2019-05-17T16:14:04.650Z,18.53
2019-05-17T16:16:40.278Z,18.43
2019-05-17T16:19:14.485Z,18.37
2019-05-17T16:21:48.546Z,18.38
2019-05-17T16:24:22.701Z,18.42
2019-05-17T16:26:58.005Z,18.44
2019-05-17T16:29:30.629Z,18.40
2019-05-17T16:32:03.283Z,18.41
2019-05-17T16:34:37.104Z,18.43
2019-05-17T16:37:12.865Z,18.48
2019-05-17T16:39:45.531Z,18.47
2019-05-17T16:42:19.562Z,18.44
2019-05-17T16:44:54.842Z,18.46
2019-05-17T16:47:29.437Z,18.38
2019-05-17T16:50:03.751Z,18.30
2019-05-17T16:52:41.601Z,18.23
2019-05-17T16:55:16.052Z,18.20
2019-05-17T16:57:48.698Z,18.09
2019-05-17T17:00:29.677Z,18.03
2019-05-17T17:03:02.267Z,18.01
2019-05-17T17:05:35.606Z,18.06
2019-05-17T17:08:08.294Z,18.17
2019-05-17T17:10:42.456Z,18.34
2019-05-17T17:13:16.417Z,18.48
2019-05-17T17:15:49.545Z,18.50
2019-05-17T17:18:25.176Z,18.42
2019-05-17T17:21:01.502Z,18.34
2019-05-17T17:23:35.354Z,18.29
2019-05-17T17:26:14.992Z,18.28
2019-05-17T17:28:50.632Z,18.25
2019-05-17T17:31:26.574Z,18.19
2019-05-17T17:34:01.275Z,18.12
2019-05-17T17:36:42.590Z,18.07
2019-05-17T17:39:16.941Z,18.00
2019-05-17T17:41:49.601Z,17.92
2019-05-17T17:44:25.196Z,17.91
2019-05-17T17:46:58.666Z,17.90
2019-05-17T17:49:31.864Z,17.81
2019-05-17T17:52:05.781Z,17.71
2019-05-17T17:54:41.288Z,17.61
2019-05-17T17:57:15.318Z,17.51
2019-05-17T17:59:48.555Z,17.44
2019-05-17T18:02:25.833Z,17.35
2019-05-17T18:04:59.927Z,17.26
2019-05-17T18:07:34.538Z,17.23
2019-05-17T18:10:08.325Z,17.19
2019-05-17T18:12:42.644Z,17.15
2019-05-17T18:15:36.173Z,17.12
2019-05-17T18:18:10.071Z,17.15
2019-05-17T18:20:44.567Z,17.10
2019-05-17T18:23:29.945Z,17.11
2019-05-17T18:26:05.728Z,17.03
2019-05-17T18:28:46.991Z,16.97
2019-05-17T18:31:19.899Z,16.96
2019-05-17T18:33:52.601Z,17.00
2019-05-17T18:36:27.082Z,17.18
2019-05-17T18:38:59.839Z,17.20
2019-05-17T18:41:37.267Z,17.30
2019-05-17T18:44:12.015Z,17.35
2019-05-17T18:46:45.721Z,17.35
2019-05-17T18:49:21.739Z,17.33
2019-05-17T18:51:56.205Z,17.35
2019-05-17T18:54:30.447Z,17.35
2019-05-17T18:57:05.127Z,17.33
2019-05-17T18:59:38.899Z,17.28
2019-05-17T19:02:12.197Z,17.24
2019-05-17T19:04:45.794Z,17.18
2019-05-17T19:07:23.327Z,17.13
2019-05-17T19:10:00.314Z,17.11
2019-05-17T19:12:36.690Z,17.10
2019-05-17T19:15:17.473Z,17.16
2019-05-17T19:17:53.446Z,17.12
2019-05-17T19:20:27.947Z,17.06
2019-05-17T19:23:03.558Z,17.13
2019-05-17T19:25:38.289Z,17.08
2019-05-17T19:28:12.302Z,17.05
2019-05-17T19:30:45.072Z,16.99
2019-05-17T19:33:21.790Z,16.92
2019-05-17T19:35:55.638Z,16.88
2019-05-17T19:38:31.394Z,16.84
2019-05-17T19:41:06.562Z,16.87
2019-05-17T19:43:40.083Z,16.83
2019-05-17T19:46:13.466Z,16.76
2019-05-17T19:48:47.027Z,16.70
2019-05-17T19:51:29.966Z,16.79
2019-05-17T19:54:06.356Z,16.81
2019-05-17T19:56:43.234Z,16.95
2019-05-17T19:59:16.507Z,17.10
2019-05-17T20:01:49.207Z,17.15
2019-05-17T20:04:23.584Z,17.13
2019-05-17T20:06:57.963Z,16.98
2019-05-17T20:09:31.594Z,16.83
2019-05-17T20:12:06.063Z,16.66
2019-05-17T20:14:42.467Z,16.52
2019-05-17T20:17:16.143Z,16.37
2019-05-17T20:19:49.387Z,16.24
2019-05-17T20:22:24.407Z,16.13
2019-05-17T20:24:58.667Z,16.07
2019-05-17T20:27:31.202Z,16.01
2019-05-17T20:30:06.943Z,16.03
2019-05-17T20:32:40.049Z,15.96
2019-05-17T20:35:12.630Z,15.90
2019-05-17T20:37:45.790Z,15.86
2019-05-17T20:40:21.171Z,15.80
2019-05-17T20:42:53.849Z,15.74
2019-05-17T20:45:33.095Z,15.72
2019-05-17T20:48:10.043Z,15.71
2019-05-17T20:50:44.436Z,15.69
2019-05-17T20:53:19.278Z,15.65
2019-05-17T20:55:52.377Z,15.61
2019-05-17T20:58:26.763Z,15.59
2019-05-17T21:01:00.891Z,15.56
2019-05-17T21:03:33.463Z,15.54
2019-05-17T21:06:06.070Z,15.53
2019-05-17T21:08:46.201Z,15.52
2019-05-17T21:11:19.187Z,15.49
2019-05-17T21:13:52.565Z,15.48
2019-05-17T21:16:26.499Z,15.47
2019-05-17T21:18:59.185Z,15.45
2019-05-17T21:21:31.939Z,15.51
2019-05-17T21:24:05.442Z,15.46
2019-05-17T21:26:38.075Z,15.42
2019-05-17T21:29:17.860Z,15.40
2019-05-17T21:32:04.145Z,15.45
2019-05-17T21:34:42.603Z,15.38
2019-05-17T21:37:16.252Z,15.35
2019-05-17T21:39:49.884Z,15.32
2019-05-17T21:42:22.659Z,15.29
2019-05-17T21:44:55.343Z,15.27
2019-05-17T21:47:31.768Z,15.32
2019-05-17T21:50:05.577Z,15.36
2019-05-17T21:52:40.335Z,15.27
2019-05-17T21:55:13.903Z,15.21
2019-05-17T21:57:48.116Z,15.16
2019-05-17T22:01:08.758Z,15.22
2019-05-17T22:03:43.445Z,15.11
2019-05-17T22:06:17.483Z,15.16
2019-05-17T22:08:51.670Z,15.07
2019-05-17T22:11:28.737Z,14.99
2019-05-17T22:14:01.410Z,14.92
2019-05-17T22:16:34.083Z,14.86
2019-05-17T22:19:07.570Z,14.79
2019-05-17T22:21:41.693Z,14.74
2019-05-17T22:24:15.824Z,14.68
2019-05-17T22:26:48.492Z,14.62
2019-05-17T22:29:22.009Z,14.56
2019-05-17T22:31:55.317Z,14.50
2019-05-17T22:34:29.326Z,14.44
2019-05-17T22:37:02.490Z,14.38
2019-05-17T22:39:35.081Z,14.34
2019-05-17T22:42:07.695Z,14.28
2019-05-17T22:44:42.929Z,14.24
2019-05-17T22:47:15.444Z,14.16
2019-05-17T22:49:47.987Z,14.09
2019-05-17T22:52:20.447Z,14.03
2019-05-17T22:54:52.944Z,13.98
2019-05-17T22:57:28.817Z,13.93
2019-05-17T23:00:03.131Z,13.91
2019-05-17T23:02:37.266Z,13.87
2019-05-17T23:05:11.254Z,13.84
2019-05-17T23:07:53.762Z,13.80
2019-05-17T23:10:35.177Z,13.78
2019-05-17T23:13:07.845Z,13.75
2019-05-17T23:15:49.518Z,13.72
2019-05-17T23:18:25.283Z,13.69
2019-05-17T23:21:01.564Z,13.65
2019-05-17T23:23:44.424Z,13.62
2019-05-17T23:26:18.156Z,13.57
2019-05-17T23:28:51.448Z,13.54
2019-05-17T23:31:35.898Z,13.50
2019-05-17T23:34:10.666Z,13.55
2019-05-17T23:36:44.868Z,13.48
2019-05-17T23:39:20.369Z,13.52
2019-05-17T23:41:54.485Z,13.44
2019-05-17T23:44:27.883Z,13.39
2019-05-17T23:47:07.082Z,13.33
2019-05-17T23:49:42.186Z,13.28
2019-05-17T23:52:14.635Z,13.25
2019-05-17T23:54:49.591Z,13.24
2019-05-17T23:57:22.064Z,13.20
2019-05-17T23:59:54.653Z,13.20
